Mosquitoville, Vermont
Current Conditions -  °F | °C
As of 4:51 PM on Thursday 23 Oct 2014 (Local Time) from KMPV Reporting Station
Light Rain Light Rain  
Wind Chill: 41°   Ceiling: 900
Heat Index: 45°   Visibility: 10mi
Dew Point: 43°   Wind: 8mph
Humidity: 93%   Direction: 340°NNW
Pressure: 29.89"   Gusts: NA
Location:  44.1959°N, 72.0788°W
Report Text: KMPV 232051Z AUTO 34007KT 10SM -RA OVC009 07/06 A2989 RMK AO2 RAB41 SLP130 P0000 60009 T00720061 56007
Loading
Personal Weather Stations






























Interactive Weather Map
Tropical Storm Tracking
New forecast layout! Learn more

10-Day Weather Forecast

Advertisements
Track Severe Weather on mobile